createdAt,value
2017-03-23T00:00:04.041Z,1006.52
2017-03-23T00:01:04.022Z,1006.52
2017-03-23T00:02:04.002Z,1006.55
2017-03-23T00:03:03.988Z,1006.55
2017-03-23T00:04:03.966Z,1006.6
2017-03-23T00:05:03.949Z,1006.59
2017-03-23T00:06:03.930Z,1006.59
2017-03-23T00:07:03.910Z,1006.59
2017-03-23T00:08:03.897Z,1006.57
2017-03-23T00:09:03.875Z,1006.63
2017-03-23T00:10:03.854Z,1006.63
2017-03-23T00:11:03.837Z,1006.69
2017-03-23T00:12:03.822Z,1006.69
2017-03-23T00:13:03.801Z,1006.71
2017-03-23T00:14:03.784Z,1006.73
2017-03-23T00:15:03.764Z,1006.75
2017-03-23T00:16:03.748Z,1006.78
2017-03-23T00:17:03.726Z,1006.76
2017-03-23T00:18:03.708Z,1006.75
2017-03-23T00:19:03.693Z,1006.78
2017-03-23T00:20:03.676Z,1006.77
2017-03-23T00:21:03.653Z,1006.76
2017-03-23T00:22:03.635Z,1006.72
2017-03-23T00:23:03.618Z,1006.76
2017-03-23T00:24:03.600Z,1006.72
2017-03-23T00:25:03.582Z,1006.73
2017-03-23T00:26:03.562Z,1006.72
2017-03-23T00:27:03.544Z,1006.72
2017-03-23T00:28:03.525Z,1006.7
2017-03-23T00:29:03.506Z,1006.68
2017-03-23T00:30:03.488Z,1006.71
2017-03-23T00:31:03.472Z,1006.64
2017-03-23T00:32:03.452Z,1006.66
2017-03-23T00:33:03.435Z,1006.67
2017-03-23T00:34:03.415Z,1006.65
2017-03-23T00:35:03.397Z,1006.63
2017-03-23T00:36:03.379Z,1006.6
2017-03-23T00:37:03.364Z,1006.58
2017-03-23T00:38:03.344Z,1006.58
2017-03-23T00:39:03.325Z,1006.59
2017-03-23T00:40:03.307Z,1006.52
2017-03-23T00:41:03.286Z,1006.54
2017-03-23T00:42:03.270Z,1006.51
2017-03-23T00:43:03.251Z,1006.53
2017-03-23T00:44:03.232Z,1006.57
2017-03-23T00:45:03.213Z,1006.57
2017-03-23T00:46:03.244Z,1006.57
2017-03-23T00:47:03.176Z,1006.6
2017-03-23T00:48:03.157Z,1006.59
2017-03-23T00:49:03.141Z,1006.58
2017-03-23T00:50:03.120Z,1006.59
2017-03-23T00:51:03.103Z,1006.56
2017-03-23T00:52:03.085Z,1006.56
2017-03-23T00:53:03.066Z,1006.56
2017-03-23T00:54:03.049Z,1006.56
2017-03-23T00:55:03.029Z,1006.59
2017-03-23T00:56:03.012Z,1006.57
2017-03-23T00:57:02.993Z,1006.56
2017-03-23T00:58:02.974Z,1006.56
2017-03-23T00:59:02.956Z,1006.57
2017-03-23T01:00:02.937Z,1006.59
2017-03-23T01:01:02.919Z,1006.61
2017-03-23T01:02:02.900Z,1006.6
2017-03-23T01:03:02.884Z,1006.58
2017-03-23T01:04:02.862Z,1006.58
2017-03-23T01:05:02.845Z,1006.59
2017-03-23T01:06:02.828Z,1006.62
2017-03-23T01:07:02.809Z,1006.61
2017-03-23T01:08:02.789Z,1006.66
2017-03-23T01:09:02.771Z,1006.61
2017-03-23T01:10:02.752Z,1006.59
2017-03-23T01:11:02.732Z,1006.62
2017-03-23T01:12:02.714Z,1006.59
2017-03-23T01:13:02.695Z,1006.57
2017-03-23T01:14:02.676Z,1006.58
2017-03-23T01:15:02.659Z,1006.55
2017-03-23T01:16:02.641Z,1006.58
2017-03-23T01:17:02.620Z,1006.54
2017-03-23T01:18:02.602Z,1006.57
2017-03-23T01:19:02.584Z,1006.51
2017-03-23T01:20:02.565Z,1006.56
2017-03-23T01:21:02.595Z,1006.54
2017-03-23T01:22:02.529Z,1006.57
2017-03-23T01:23:02.507Z,1006.57
2017-03-23T01:24:02.489Z,1006.6
2017-03-23T01:25:02.475Z,1006.59
2017-03-23T01:26:02.452Z,1006.59
2017-03-23T01:27:02.433Z,1006.61
2017-03-23T01:28:02.414Z,1006.54
2017-03-23T01:29:02.396Z,1006.57
2017-03-23T01:30:02.376Z,1006.53
2017-03-23T01:31:02.357Z,1006.49
2017-03-23T01:32:02.338Z,1006.48
2017-03-23T01:33:02.320Z,1006.45
2017-03-23T01:34:02.301Z,1006.46
2017-03-23T01:35:02.282Z,1006.47
2017-03-23T01:36:02.263Z,1006.45
2017-03-23T01:37:02.246Z,1006.42
2017-03-23T01:38:02.225Z,1006.38
2017-03-23T01:39:02.207Z,1006.4
2017-03-23T01:40:02.188Z,1006.4
2017-03-23T01:41:02.169Z,1006.37
2017-03-23T01:42:02.148Z,1006.38
2017-03-23T01:43:02.131Z,1006.36
2017-03-23T01:44:02.112Z,1006.38
2017-03-23T01:45:02.093Z,1006.37
2017-03-23T01:46:02.072Z,1006.33
2017-03-23T01:47:02.056Z,1006.31
2017-03-23T01:48:02.035Z,1006.34
2017-03-23T01:49:02.016Z,1006.3
2017-03-23T01:50:01.999Z,1006.28
2017-03-23T01:51:01.978Z,1006.26
2017-03-23T01:52:01.961Z,1006.26
2017-03-23T01:53:01.939Z,1006.25
2017-03-23T01:54:01.922Z,1006.29
2017-03-23T01:55:01.903Z,1006.29
2017-03-23T01:56:01.884Z,1006.29
2017-03-23T01:57:01.872Z,1006.32
2017-03-23T01:58:01.848Z,1006.31
2017-03-23T01:59:01.838Z,1006.29
2017-03-23T02:00:01.807Z,1006.31
2017-03-23T02:01:01.790Z,1006.28
2017-03-23T02:02:01.777Z,1006.27
2017-03-23T02:03:01.750Z,1006.24
2017-03-23T02:04:01.733Z,1006.25
2017-03-23T02:05:01.713Z,1006.21
2017-03-23T02:06:01.694Z,1006.16
2017-03-23T02:07:01.676Z,1006.18
2017-03-23T02:08:01.656Z,1006.17
2017-03-23T02:09:01.637Z,1006.16
2017-03-23T02:10:01.618Z,1006.12
2017-03-23T02:11:01.601Z,1006.14
2017-03-23T02:12:01.583Z,1006.15
2017-03-23T02:13:01.563Z,1006.14
2017-03-23T02:14:01.544Z,1006.18
2017-03-23T02:15:01.526Z,1006.17
2017-03-23T02:16:01.505Z,1006.15
2017-03-23T02:17:01.494Z,1006.17
2017-03-23T02:18:01.470Z,1006.13
2017-03-23T02:19:01.449Z,1006.17
2017-03-23T02:20:01.433Z,1006.15
2017-03-23T02:21:01.411Z,1006.17
2017-03-23T02:22:01.393Z,1006.19
2017-03-23T02:23:01.379Z,1006.16
2017-03-23T02:24:01.357Z,1006.23
2017-03-23T02:25:01.337Z,1006.22
2017-03-23T02:26:01.319Z,1006.23
2017-03-23T02:27:01.300Z,1006.23
2017-03-23T02:28:01.281Z,1006.22
2017-03-23T02:29:01.263Z,1006.26
2017-03-23T02:30:01.246Z,1006.29
2017-03-23T02:31:01.227Z,1006.33
2017-03-23T02:32:01.208Z,1006.32
2017-03-23T02:33:01.192Z,1006.33
2017-03-23T02:34:01.208Z,1006.31
2017-03-23T02:35:01.154Z,1006.33
2017-03-23T02:36:01.136Z,1006.34
2017-03-23T02:37:01.116Z,1006.31
2017-03-23T02:38:01.098Z,1006.34
2017-03-23T02:39:01.078Z,1006.34
2017-03-23T02:40:01.063Z,1006.34
2017-03-23T02:41:01.043Z,1006.32
2017-03-23T02:42:01.024Z,1006.31
2017-03-23T02:43:01.006Z,1006.32
2017-03-23T02:44:00.990Z,1006.31
2017-03-23T02:45:00.969Z,1006.35
2017-03-23T02:46:00.954Z,1006.35
2017-03-23T02:47:00.937Z,1006.37
2017-03-23T02:48:00.917Z,1006.31
2017-03-23T02:49:00.899Z,1006.33
2017-03-23T02:50:00.878Z,1006.3
2017-03-23T02:51:00.860Z,1006.3
2017-03-23T02:52:00.842Z,1006.32
2017-03-23T02:53:00.824Z,1006.29
2017-03-23T02:54:00.805Z,1006.27
2017-03-23T02:55:00.790Z,1006.27
2017-03-23T02:56:00.770Z,1006.29
2017-03-23T02:57:00.753Z,1006.31
2017-03-23T02:58:00.734Z,1006.26
2017-03-23T02:59:00.716Z,1006.3
2017-03-23T03:00:00.698Z,1006.29
2017-03-23T03:01:00.681Z,1006.32
2017-03-23T03:02:00.664Z,1006.38
2017-03-23T03:03:00.646Z,1006.37
2017-03-23T03:04:00.626Z,1006.39
2017-03-23T03:05:00.610Z,1006.34
2017-03-23T03:06:00.591Z,1006.33
2017-03-23T03:07:00.573Z,1006.31
2017-03-23T03:08:00.555Z,1006.32
2017-03-23T03:09:00.537Z,1006.24
2017-03-23T03:10:00.518Z,1006.24
2017-03-23T03:11:00.502Z,1006.14
2017-03-23T03:12:00.485Z,1006.15
2017-03-23T03:13:00.466Z,1006.12
2017-03-23T03:14:00.448Z,1006.08
2017-03-23T03:15:00.431Z,1006.07
2017-03-23T03:16:00.412Z,1006.05
2017-03-23T03:17:00.395Z,1005.97
2017-03-23T03:18:00.378Z,1006
2017-03-23T03:19:00.359Z,1005.98
2017-03-23T03:20:00.341Z,1005.92
2017-03-23T03:21:00.323Z,1005.89
2017-03-23T03:22:00.307Z,1005.89
2017-03-23T03:23:00.287Z,1005.87
2017-03-23T03:24:00.271Z,1005.86
2017-03-23T03:25:00.253Z,1005.86
2017-03-23T03:26:00.235Z,1005.9
2017-03-23T03:27:00.215Z,1005.87
2017-03-23T03:28:00.199Z,1005.91
2017-03-23T03:29:00.183Z,1005.91
2017-03-23T03:30:00.164Z,1005.94
2017-03-23T03:31:00.147Z,1005.96
2017-03-23T03:32:00.126Z,1005.98
2017-03-23T03:33:00.109Z,1006.07
2017-03-23T03:34:00.092Z,1006.09
2017-03-23T03:35:00.076Z,1006.09
2017-03-23T03:36:00.059Z,1006.11
2017-03-23T03:37:00.040Z,1006.13
2017-03-23T03:38:00.021Z,1006.14
2017-03-23T03:39:00.002Z,1006.15
2017-03-23T03:39:59.987Z,1006.13
2017-03-23T03:40:59.968Z,1006.14
2017-03-23T03:41:59.949Z,1006.19
2017-03-23T03:42:59.932Z,1006.18
2017-03-23T03:43:59.914Z,1006.19
2017-03-23T03:44:59.896Z,1006.23
2017-03-23T03:45:59.880Z,1006.26
2017-03-23T03:46:59.861Z,1006.26
2017-03-23T03:47:59.843Z,1006.25
2017-03-23T03:48:59.830Z,1006.3
2017-03-23T03:49:59.810Z,1006.27
2017-03-23T03:50:59.792Z,1006.31
2017-03-23T03:51:59.774Z,1006.31
2017-03-23T03:52:59.755Z,1006.34
2017-03-23T03:53:59.737Z,1006.31
2017-03-23T03:54:59.720Z,1006.36
2017-03-23T03:55:59.704Z,1006.36
2017-03-23T03:56:59.686Z,1006.39
2017-03-23T03:57:59.667Z,1006.38
2017-03-23T03:58:59.650Z,1006.44
2017-03-23T03:59:59.631Z,1006.41
2017-03-23T04:00:59.614Z,1006.45
2017-03-23T04:01:59.597Z,1006.39
2017-03-23T04:02:59.579Z,1006.42
2017-03-23T04:03:59.561Z,1006.43
2017-03-23T04:04:59.545Z,1006.41
2017-03-23T04:05:59.528Z,1006.44
2017-03-23T04:06:59.509Z,1006.41
2017-03-23T04:07:59.492Z,1006.41
2017-03-23T04:08:59.475Z,1006.43
2017-03-23T04:09:59.460Z,1006.43
2017-03-23T04:10:59.440Z,1006.45
2017-03-23T04:11:59.422Z,1006.43
2017-03-23T04:12:59.405Z,1006.47
2017-03-23T04:13:59.386Z,1006.47
2017-03-23T04:14:59.370Z,1006.5
2017-03-23T04:15:59.404Z,1006.51
2017-03-23T04:16:59.337Z,1006.49
2017-03-23T04:17:59.319Z,1006.51
2017-03-23T04:18:59.301Z,1006.51
2017-03-23T04:19:59.283Z,1006.53
2017-03-23T04:20:59.267Z,1006.51
2017-03-23T04:21:59.249Z,1006.55
2017-03-23T04:22:59.230Z,1006.58
2017-03-23T04:23:59.212Z,1006.6
2017-03-23T04:24:59.195Z,1006.54
2017-03-23T04:25:59.178Z,1006.61
2017-03-23T04:26:59.169Z,1006.53
2017-03-23T04:27:59.145Z,1006.56
2017-03-23T04:28:59.125Z,1006.57
2017-03-23T04:29:59.111Z,1006.5
2017-03-23T04:30:59.091Z,1006.54
2017-03-23T04:31:59.075Z,1006.55
2017-03-23T04:32:59.055Z,1006.59
2017-03-23T04:33:59.039Z,1006.58
2017-03-23T04:34:59.021Z,1006.58
2017-03-23T04:35:59.003Z,1006.59
2017-03-23T04:36:58.985Z,1006.58
2017-03-23T04:37:58.968Z,1006.59
2017-03-23T04:38:58.949Z,1006.6
2017-03-23T04:39:58.931Z,1006.57
2017-03-23T04:40:58.916Z,1006.57
2017-03-23T04:41:58.898Z,1006.58
2017-03-23T04:42:58.880Z,1006.59
2017-03-23T04:43:58.866Z,1006.58
2017-03-23T04:44:58.845Z,1006.63
2017-03-23T04:45:58.828Z,1006.59
2017-03-23T04:46:58.810Z,1006.6
2017-03-23T04:47:58.793Z,1006.58
2017-03-23T04:48:58.778Z,1006.66
2017-03-23T04:49:58.759Z,1006.64
2017-03-23T04:50:58.741Z,1006.63
2017-03-23T04:51:58.725Z,1006.66
2017-03-23T04:52:58.705Z,1006.67
2017-03-23T04:53:58.689Z,1006.71
2017-03-23T04:54:58.721Z,1006.66
2017-03-23T04:55:58.655Z,1006.68
2017-03-23T04:56:58.637Z,1006.7
2017-03-23T04:57:58.618Z,1006.67
2017-03-23T04:58:58.601Z,1006.65
2017-03-23T04:59:58.585Z,1006.66
2017-03-23T05:00:58.569Z,1006.63
2017-03-23T05:01:58.547Z,1006.64
2017-03-23T05:02:58.533Z,1006.63
2017-03-23T05:03:58.512Z,1006.58
2017-03-23T05:04:58.497Z,1006.61
2017-03-23T05:05:58.518Z,1006.57
2017-03-23T05:06:58.460Z,1006.6
2017-03-23T05:07:58.443Z,1006.62
2017-03-23T05:08:58.426Z,1006.61
2017-03-23T05:09:58.409Z,1006.58
2017-03-23T05:10:58.392Z,1006.6
2017-03-23T05:11:58.378Z,1006.59
2017-03-23T05:12:58.355Z,1006.61
2017-03-23T05:13:58.337Z,1006.55
2017-03-23T05:14:58.321Z,1006.6
2017-03-23T05:15:58.304Z,1006.6
2017-03-23T05:16:58.287Z,1006.61
2017-03-23T05:17:58.268Z,1006.64
2017-03-23T05:18:58.251Z,1006.63
2017-03-23T05:19:58.232Z,1006.69
2017-03-23T05:20:58.217Z,1006.68
2017-03-23T05:21:58.197Z,1006.69
2017-03-23T05:22:58.180Z,1006.72
2017-03-23T05:23:58.163Z,1006.68
2017-03-23T05:24:58.146Z,1006.73
2017-03-23T05:25:58.330Z,1006.72
2017-03-23T05:26:58.111Z,1006.73
2017-03-23T05:27:58.093Z,1006.77
2017-03-23T05:28:58.075Z,1006.76
2017-03-23T05:29:58.059Z,1006.8
2017-03-23T05:30:58.041Z,1006.78
2017-03-23T05:31:58.024Z,1006.78
2017-03-23T05:32:58.005Z,1006.79
2017-03-23T05:33:57.988Z,1006.82
2017-03-23T05:34:57.970Z,1006.8
2017-03-23T05:35:57.952Z,1006.8
2017-03-23T05:36:57.936Z,1006.81
2017-03-23T05:37:57.919Z,1006.84
2017-03-23T05:38:57.902Z,1006.86
2017-03-23T05:39:57.884Z,1006.84
2017-03-23T05:40:57.867Z,1006.89
2017-03-23T05:41:57.849Z,1006.92
2017-03-23T05:42:57.831Z,1006.93
2017-03-23T05:43:57.815Z,1006.94
2017-03-23T05:44:57.799Z,1006.98
2017-03-23T05:45:57.781Z,1007
2017-03-23T05:46:57.813Z,1006.99
2017-03-23T05:47:57.747Z,1007.04
2017-03-23T05:48:57.727Z,1007.06
2017-03-23T05:49:57.713Z,1007.06
2017-03-23T05:50:57.692Z,1007.02
2017-03-23T05:51:57.676Z,1007.05
2017-03-23T05:52:57.657Z,1007.07
2017-03-23T05:53:57.640Z,1007.07
2017-03-23T05:54:57.624Z,1007.05
2017-03-23T05:55:57.657Z,1007.07
2017-03-23T05:56:57.588Z,1007.14
2017-03-23T05:57:57.571Z,1007.1
2017-03-23T05:58:57.552Z,1007.13
2017-03-23T05:59:57.534Z,1007.11
2017-03-23T06:00:57.521Z,1007.11
2017-03-23T06:01:57.501Z,1007.08
2017-03-23T06:02:57.486Z,1007.06
2017-03-23T06:03:57.465Z,1007.05
2017-03-23T06:04:57.449Z,1007.06
2017-03-23T06:05:57.431Z,1007.09
2017-03-23T06:06:57.413Z,1007.11
2017-03-23T06:07:57.397Z,1007.1
2017-03-23T06:08:57.380Z,1007.13
2017-03-23T06:09:57.363Z,1007.16
2017-03-23T06:10:57.346Z,1007.17
2017-03-23T06:11:57.327Z,1007.13
2017-03-23T06:12:57.361Z,1007.14
2017-03-23T06:13:57.296Z,1007.1
2017-03-23T06:14:57.277Z,1007.13
2017-03-23T06:15:57.258Z,1007.09
2017-03-23T06:16:57.244Z,1007.11
2017-03-23T06:17:57.228Z,1007.15
2017-03-23T06:18:57.207Z,1007.16
2017-03-23T06:19:57.197Z,1007.17
2017-03-23T06:20:57.172Z,1007.21
2017-03-23T06:21:57.206Z,1007.2
2017-03-23T06:22:57.138Z,1007.22
2017-03-23T06:23:57.122Z,1007.23
2017-03-23T06:24:57.103Z,1007.23
2017-03-23T06:25:57.090Z,1007.25
2017-03-23T06:26:57.069Z,1007.29
2017-03-23T06:27:57.052Z,1007.31
2017-03-23T06:28:57.087Z,1007.33
2017-03-23T06:29:57.018Z,1007.35
2017-03-23T06:30:57.002Z,1007.36
2017-03-23T06:31:56.985Z,1007.37
2017-03-23T06:32:56.966Z,1007.4
2017-03-23T06:33:56.948Z,1007.41
2017-03-23T06:34:56.937Z,1007.44
2017-03-23T06:35:56.916Z,1007.43
2017-03-23T06:36:56.899Z,1007.42
2017-03-23T06:37:56.881Z,1007.47
2017-03-23T06:38:56.916Z,1007.48
2017-03-23T06:39:56.848Z,1007.5
2017-03-23T06:40:56.831Z,1007.49
2017-03-23T06:41:56.815Z,1007.51
2017-03-23T06:42:56.799Z,1007.53
2017-03-23T06:43:56.781Z,1007.54
2017-03-23T06:44:56.765Z,1007.56
2017-03-23T06:45:56.749Z,1007.55
2017-03-23T06:46:56.730Z,1007.6
2017-03-23T06:47:56.714Z,1007.62
2017-03-23T06:48:56.699Z,1007.68
2017-03-23T06:49:56.680Z,1007.62
2017-03-23T06:50:56.666Z,1007.67
2017-03-23T06:51:56.647Z,1007.73
2017-03-23T06:52:56.631Z,1007.68
2017-03-23T06:53:56.614Z,1007.64
2017-03-23T06:54:56.597Z,1007.7
2017-03-23T06:55:56.620Z,1007.72
2017-03-23T06:56:56.563Z,1007.71
2017-03-23T06:57:56.549Z,1007.67
2017-03-23T06:58:56.532Z,1007.65
2017-03-23T06:59:56.516Z,1007.65
2017-03-23T07:00:56.500Z,1007.67
2017-03-23T07:01:56.482Z,1007.7
2017-03-23T07:02:56.465Z,1007.66
2017-03-23T07:03:56.450Z,1007.68
2017-03-23T07:04:56.435Z,1007.72
2017-03-23T07:05:56.416Z,1007.69
2017-03-23T07:06:56.401Z,1007.75
2017-03-23T07:07:56.384Z,1007.72
2017-03-23T07:08:56.368Z,1007.74
2017-03-23T07:09:56.352Z,1007.74
2017-03-23T07:10:56.335Z,1007.76
2017-03-23T07:11:56.320Z,1007.71
2017-03-23T07:12:56.304Z,1007.76
2017-03-23T07:13:56.288Z,1007.76
2017-03-23T07:14:56.273Z,1007.76
2017-03-23T07:15:56.256Z,1007.79
2017-03-23T07:16:56.241Z,1007.85
2017-03-23T07:17:56.224Z,1007.85
2017-03-23T07:18:56.209Z,1007.87
2017-03-23T07:19:56.193Z,1007.84
2017-03-23T07:20:56.177Z,1007.86
2017-03-23T07:21:56.161Z,1007.88
2017-03-23T07:22:56.145Z,1007.88
2017-03-23T07:23:56.131Z,1007.9
2017-03-23T07:24:56.118Z,1007.86
2017-03-23T07:25:56.300Z,1007.88
2017-03-23T07:26:56.084Z,1007.91
2017-03-23T07:27:56.066Z,1007.91
2017-03-23T07:28:56.051Z,1007.92
2017-03-23T07:29:56.037Z,1007.87
2017-03-23T07:30:56.021Z,1007.9
2017-03-23T07:31:56.008Z,1007.87
2017-03-23T07:32:55.990Z,1007.87
2017-03-23T07:33:55.976Z,1007.87
2017-03-23T07:34:55.960Z,1007.89
2017-03-23T07:35:55.945Z,1007.89
2017-03-23T07:36:55.930Z,1007.9
2017-03-23T07:37:55.915Z,1007.91
2017-03-23T07:38:55.900Z,1007.9
2017-03-23T07:39:55.884Z,1007.9
2017-03-23T07:40:55.874Z,1007.95
2017-03-23T07:41:55.857Z,1007.97
2017-03-23T07:42:55.842Z,1007.96
2017-03-23T07:43:55.826Z,1007.99
2017-03-23T07:44:55.810Z,1007.98
2017-03-23T07:45:55.798Z,1008.02
2017-03-23T07:46:55.779Z,1007.98
2017-03-23T07:47:55.765Z,1007.99
2017-03-23T07:48:55.750Z,1007.96
2017-03-23T07:49:55.736Z,1007.95
2017-03-23T07:50:55.719Z,1007.99
2017-03-23T07:51:55.705Z,1008
2017-03-23T07:52:55.691Z,1008.01
2017-03-23T07:53:55.676Z,1008.01
2017-03-23T07:54:55.662Z,1008.02
2017-03-23T07:55:55.651Z,1008.02
2017-03-23T07:56:55.634Z,1008.04
2017-03-23T07:57:55.618Z,1008.02
2017-03-23T07:58:55.606Z,1008.05
2017-03-23T07:59:55.594Z,1008.02
2017-03-23T08:00:55.576Z,1008.05
2017-03-23T08:01:55.563Z,1008.07
2017-03-23T08:02:55.550Z,1008.08
2017-03-23T08:03:55.535Z,1008.11
2017-03-23T08:04:55.524Z,1008.09
2017-03-23T08:05:55.507Z,1008.15
2017-03-23T08:06:55.494Z,1008.2
2017-03-23T08:07:55.479Z,1008.18
2017-03-23T08:08:55.465Z,1008.23
2017-03-23T08:09:55.451Z,1008.19
2017-03-23T08:10:55.439Z,1008.21
2017-03-23T08:11:55.424Z,1008.19
2017-03-23T08:12:55.410Z,1008.2
2017-03-23T08:13:55.398Z,1008.21
2017-03-23T08:14:55.385Z,1008.25
2017-03-23T08:15:55.370Z,1008.27
2017-03-23T08:16:55.359Z,1008.3
2017-03-23T08:17:55.345Z,1008.36
2017-03-23T08:18:55.331Z,1008.49
2017-03-23T08:19:55.318Z,1008.52
2017-03-23T08:20:55.306Z,1008.5
2017-03-23T08:21:55.294Z,1008.54
2017-03-23T08:22:55.280Z,1008.55
2017-03-23T08:23:55.269Z,1008.57
2017-03-23T08:24:55.258Z,1008.52
2017-03-23T08:25:55.245Z,1008.57
2017-03-23T08:26:55.234Z,1008.58
2017-03-23T08:27:55.223Z,1008.65
2017-03-23T08:28:55.212Z,1008.69
2017-03-23T08:29:55.201Z,1008.77
2017-03-23T08:30:55.192Z,1008.74
2017-03-23T08:31:55.185Z,1008.73
2017-03-23T08:32:55.174Z,1008.69
2017-03-23T08:33:55.165Z,1008.65
2017-03-23T08:34:55.157Z,1008.68
2017-03-23T08:35:55.149Z,1008.64
2017-03-23T08:36:55.142Z,1008.63
2017-03-23T08:37:55.132Z,1008.62
2017-03-23T08:38:55.127Z,1008.58
2017-03-23T08:39:55.119Z,1008.59
2017-03-23T08:40:55.111Z,1008.66
2017-03-23T08:41:55.105Z,1008.61
2017-03-23T08:42:55.100Z,1008.55
2017-03-23T08:43:55.092Z,1008.47
2017-03-23T08:44:55.084Z,1008.45
2017-03-23T08:45:55.079Z,1008.4
2017-03-23T08:46:55.075Z,1008.45
2017-03-23T08:47:55.067Z,1008.43
2017-03-23T08:48:55.061Z,1008.45
2017-03-23T08:49:55.058Z,1008.43
2017-03-23T08:50:55.049Z,1008.56
2017-03-23T08:51:55.042Z,1008.47
2017-03-23T08:52:55.037Z,1008.46
2017-03-23T08:53:55.030Z,1008.46
2017-03-23T08:54:55.025Z,1008.46
2017-03-23T08:55:55.019Z,1008.49
2017-03-23T08:56:55.013Z,1008.46
2017-03-23T08:57:55.007Z,1008.48
2017-03-23T08:58:55.000Z,1008.5
2017-03-23T08:59:54.993Z,1008.46
2017-03-23T09:00:54.989Z,1008.44
2017-03-23T09:01:54.982Z,1008.39
2017-03-23T09:02:54.975Z,1008.37
2017-03-23T09:03:54.969Z,1008.4
2017-03-23T09:04:54.964Z,1008.48
2017-03-23T09:05:54.957Z,1008.48
2017-03-23T09:06:54.951Z,1008.5
2017-03-23T09:07:54.945Z,1008.46
2017-03-23T09:08:54.951Z,1008.52
2017-03-23T09:09:54.932Z,1008.45
2017-03-23T09:10:54.925Z,1008.45
2017-03-23T09:11:54.922Z,1008.56
2017-03-23T09:12:54.914Z,1008.6
2017-03-23T09:13:54.908Z,1008.66
2017-03-23T09:14:54.900Z,1008.64
2017-03-23T09:15:54.895Z,1008.6
2017-03-23T09:16:54.889Z,1008.63
2017-03-23T09:17:54.883Z,1008.71
2017-03-23T09:18:54.878Z,1008.75
2017-03-23T09:19:54.871Z,1008.72
2017-03-23T09:20:54.864Z,1008.66
2017-03-23T09:21:54.859Z,1008.59
2017-03-23T09:22:54.855Z,1008.57
2017-03-23T09:23:54.849Z,1008.64
2017-03-23T09:24:54.843Z,1008.68
2017-03-23T09:25:55.040Z,1008.59
2017-03-23T09:26:54.835Z,1008.59
2017-03-23T09:27:54.828Z,1008.59
2017-03-23T09:28:54.823Z,1008.62
2017-03-23T09:29:54.816Z,1008.69
2017-03-23T09:30:54.810Z,1008.63
2017-03-23T09:31:54.805Z,1008.67
2017-03-23T09:32:54.798Z,1008.67
2017-03-23T09:33:54.796Z,1008.65
2017-03-23T09:34:54.791Z,1008.59
2017-03-23T09:35:54.782Z,1008.61
2017-03-23T09:36:54.777Z,1008.65
2017-03-23T09:37:54.774Z,1008.66
2017-03-23T09:38:54.764Z,1008.7
2017-03-23T09:39:54.760Z,1008.67
2017-03-23T09:40:54.801Z,1008.67
2017-03-23T09:41:54.746Z,1008.7
2017-03-23T09:42:54.740Z,1008.63
2017-03-23T09:43:54.737Z,1008.63
2017-03-23T09:44:54.729Z,1008.57
2017-03-23T09:45:54.725Z,1008.54
2017-03-23T09:46:54.715Z,1008.56
2017-03-23T09:47:54.710Z,1008.56
2017-03-23T09:48:54.701Z,1008.63
2017-03-23T09:49:54.696Z,1008.66
2017-03-23T09:50:54.689Z,1008.64
2017-03-23T09:51:54.683Z,1008.67
2017-03-23T09:52:54.676Z,1008.67
2017-03-23T09:53:54.670Z,1008.54
2017-03-23T09:54:54.664Z,1008.58
2017-03-23T09:55:54.659Z,1008.57
2017-03-23T09:56:54.654Z,1008.63
2017-03-23T09:57:54.653Z,1008.61
2017-03-23T09:58:54.646Z,1008.65
2017-03-23T09:59:54.632Z,1008.65
2017-03-23T10:00:54.624Z,1008.64
2017-03-23T10:01:54.620Z,1008.66
2017-03-23T10:02:54.612Z,1008.65
2017-03-23T10:03:54.602Z,1008.69
2017-03-23T10:04:54.593Z,1008.73
2017-03-23T10:05:54.586Z,1008.77
2017-03-23T10:06:54.580Z,1008.76
2017-03-23T10:07:54.571Z,1008.75
2017-03-23T10:08:54.567Z,1008.79
2017-03-23T10:09:54.558Z,1008.76
2017-03-23T10:10:54.551Z,1008.69
2017-03-23T10:11:54.547Z,1008.7
2017-03-23T10:12:54.550Z,1008.72
2017-03-23T10:13:54.531Z,1008.69
2017-03-23T10:14:54.524Z,1008.67
2017-03-23T10:15:54.518Z,1008.68
2017-03-23T10:16:54.510Z,1008.66
2017-03-23T10:17:54.504Z,1008.64
2017-03-23T10:18:54.497Z,1008.69
2017-03-23T10:19:54.489Z,1008.67
2017-03-23T10:20:54.483Z,1008.7
2017-03-23T10:21:54.478Z,1008.65
2017-03-23T10:22:54.519Z,1008.69
2017-03-23T10:23:54.462Z,1008.68
2017-03-23T10:24:54.456Z,1008.66
2017-03-23T10:25:54.449Z,1008.68
2017-03-23T10:26:54.441Z,1008.66
2017-03-23T10:27:54.436Z,1008.7
2017-03-23T10:28:54.427Z,1008.68
2017-03-23T10:29:54.421Z,1008.67
2017-03-23T10:30:54.416Z,1008.66
2017-03-23T10:31:54.410Z,1008.63
2017-03-23T10:32:54.405Z,1008.65
2017-03-23T10:33:54.400Z,1008.65
2017-03-23T10:34:54.394Z,1008.61
2017-03-23T10:35:54.388Z,1008.65
2017-03-23T10:36:54.383Z,1008.68
2017-03-23T10:37:54.381Z,1008.69
2017-03-23T10:38:54.374Z,1008.75
2017-03-23T10:39:54.371Z,1008.7
2017-03-23T10:40:54.365Z,1008.72
2017-03-23T10:41:54.361Z,1008.72
2017-03-23T10:42:54.356Z,1008.7
2017-03-23T10:43:54.351Z,1008.66
2017-03-23T10:44:54.345Z,1008.68
2017-03-23T10:45:54.344Z,1008.64
2017-03-23T10:46:54.338Z,1008.68
2017-03-23T10:47:54.335Z,1008.64
2017-03-23T10:48:54.334Z,1008.69
2017-03-23T10:49:54.328Z,1008.66
2017-03-23T10:50:54.322Z,1008.61
2017-03-23T10:51:54.317Z,1008.59
2017-03-23T10:52:54.313Z,1008.58
2017-03-23T10:53:54.309Z,1008.62
2017-03-23T10:54:54.306Z,1008.63
2017-03-23T10:55:54.304Z,1008.62
2017-03-23T10:56:54.299Z,1008.64
2017-03-23T10:57:54.296Z,1008.57
2017-03-23T10:58:54.298Z,1008.43
2017-03-23T10:59:54.291Z,1008.29
2017-03-23T11:00:54.289Z,1008.38
2017-03-23T11:01:54.286Z,1008.45
2017-03-23T11:02:54.285Z,1008.53
2017-03-23T11:03:54.283Z,1008.5
2017-03-23T11:04:54.281Z,1008.52
2017-03-23T11:05:54.285Z,1008.57
2017-03-23T11:06:54.283Z,1008.6
2017-03-23T11:07:54.283Z,1008.54
2017-03-23T11:08:54.282Z,1008.48
2017-03-23T11:09:54.278Z,1008.55
2017-03-23T11:10:54.274Z,1008.55
2017-03-23T11:11:54.273Z,1008.6
2017-03-23T11:12:54.271Z,1008.64
2017-03-23T11:13:54.273Z,1008.67
2017-03-23T11:14:54.270Z,1008.69
2017-03-23T11:15:54.271Z,1008.71
2017-03-23T11:16:54.272Z,1008.69
2017-03-23T11:17:54.267Z,1008.65
2017-03-23T11:18:54.269Z,1008.68
2017-03-23T11:19:54.266Z,1008.73
2017-03-23T11:20:54.266Z,1008.72
2017-03-23T11:21:54.265Z,1008.74
2017-03-23T11:22:54.263Z,1008.76
2017-03-23T11:23:54.265Z,1008.72
2017-03-23T11:24:54.265Z,1008.77
2017-03-23T11:25:54.463Z,1008.77
2017-03-23T11:26:54.262Z,1008.75
2017-03-23T11:27:54.261Z,1008.79
2017-03-23T11:28:54.260Z,1008.71
2017-03-23T11:29:54.261Z,1008.72
2017-03-23T11:30:54.262Z,1008.79
2017-03-23T11:31:54.260Z,1008.75
2017-03-23T11:32:54.261Z,1008.8
2017-03-23T11:33:54.260Z,1008.75
2017-03-23T11:34:54.261Z,1008.84
2017-03-23T11:35:54.258Z,1008.77
2017-03-23T11:36:54.257Z,1008.79
2017-03-23T11:37:54.257Z,1008.74
2017-03-23T11:38:54.258Z,1008.69
2017-03-23T11:39:54.256Z,1008.88
2017-03-23T11:40:54.256Z,1008.75
2017-03-23T11:41:54.255Z,1008.71
2017-03-23T11:42:54.256Z,1008.78
2017-03-23T11:43:54.252Z,1008.83
2017-03-23T11:44:54.253Z,1008.78
2017-03-23T11:45:54.254Z,1008.78
2017-03-23T11:46:54.256Z,1008.76
2017-03-23T11:47:54.248Z,1008.74
2017-03-23T11:48:54.246Z,1008.82
2017-03-23T11:49:54.244Z,1008.81
2017-03-23T11:50:54.242Z,1008.86
2017-03-23T11:51:54.241Z,1008.86
2017-03-23T11:52:54.240Z,1008.89
2017-03-23T11:53:54.240Z,1008.9
2017-03-23T11:54:54.237Z,1008.78
2017-03-23T11:55:54.237Z,1008.8
2017-03-23T11:56:54.237Z,1008.89
2017-03-23T11:57:54.236Z,1008.81
2017-03-23T11:58:54.237Z,1008.85
2017-03-23T11:59:54.235Z,1008.83
2017-03-23T12:00:54.237Z,1008.89
2017-03-23T12:01:54.235Z,1008.77
2017-03-23T12:02:54.236Z,1008.82
2017-03-23T12:03:54.235Z,1008.82
2017-03-23T12:04:54.238Z,1008.91
2017-03-23T12:05:54.235Z,1008.93
2017-03-23T12:06:54.235Z,1008.98
2017-03-23T12:07:54.286Z,1008.96